Harbour Grace, Canada
Current Conditions -  °F | °C
As of 4:00 AM on Monday 22 Dec 2014 (Local Time) from CYYT Reporting Station
Overcast Overcast  
Wind Chill: 15°   Ceiling: 1200
Heat Index: 25°   Visibility: 15mi
Dew Point: 21°   Wind: 10mph
Humidity: 86%   Direction: 340°NNW
Pressure: 30.29"   Gusts: 18mph
Location:  47.68°N, 53.25°W
Report Text: CYYT 220700Z 34009G16KT 15SM OVC012 M04/M06 A3029 RMK SC8 SLP267
Loading
Personal Weather Stations






























Interactive Weather Map New forecast layout! Learn more

10-Day Weather Forecast

Advertisements
Track Severe Weather on mobile